KOEL Airport (Oakley Muni) Information

FAA: OEL - ICAO: KOEL

KOEL Airport Location

State Kansas
County Logan
City Oakley
KOEL Airport is 2 miles southeast of Oakley, KS.
Latitude 39-06-42.4270N
Longitude 100-49-00.0210W
Elevation 3,045ft

KOEL Airport METARs

METAR KOEL 262255Z AUTO 24005KT 10SM CLR 20/M08 A2995 RMK AO1 T01971082
Altimeter 29.95"
Temperature 19.7°C (67.5°F)
Wind 240° at 5KT
Clouds Skies are clear.
Visibility 10.0mi
Time observed: 2021-11-26T22:55:00Z

KOEL Airport Details

Status Operational
Activation October 1953
Ownership Public
Usage Public
Chart WICHITA
ATC on-site No
Beacon schedule sunset-sunrise
Beacon color clear green

KOEL Airport Contacts

Owner CITY OF OAKLEY
Owner address CITY HALL, 209 HUDSON AVE, OAKLEY, KS 67748
Owner phone 785-671-3136
Manager CHESTER REXFORD
Manager address 2206-9 RD, MONTEZUMA, KS 67867
Manager phone 316-846-2459

KOEL Airport (Oakley Muni) Radio Frequencies

KOEL (Airport) Radio Frequencies

UNICOM 122.8
Common traffic advisory frequency (CTAF) 122.8